Check out our new PWSWeather beta!
PWSweather.com
Personal Weather Stations
Station Observations
KNCGREEN1000
Bell Orchard Drive, Greensboro, NC 27455

Bell Orchard DriveGreensboro, NC 27455

Lat: 36.132, Lon: -79.8

Elevation: 876

Station Type: Acurite Atlas

Http://www.gilhutcheson.com

High Low Average
Temperature 50.7°F10.4°C 29.3°F-1.5°C 39.6°F4.2°C
Dew Point 40.0°F4.4°C 26.3°F-3.2°C 32.4°F0.2°C
Winds 3.0 mph 4.8 kmh Calm Calm 1.0 mph SSE1.6 kmh SSE
Wind Gusts -- -- --
Humidity 91% 53% 76%
Pressure 30.50 in1032.8 mb 30.32 in1026.8 mb -
Precipitation 0.01 in0.3 mm - -
Hour Temp Dew Point Humidity Winds Wind Gusts Pressure Precip Precip Rate Daily Precip Total
12:02 AM 31.1°F-0.5°C 26.8°F-2.9°C 84% Calm Calm -- 30.50 in1032.8 mb 0.00 in0.0 mm 0.00 in0.0 mm 0.00 in0.0 mm
12:08 AM 31.0°F-0.6°C 26.6°F-3.0°C 84% Calm Calm -- 30.50 in1032.8 mb 0.00 in0.0 mm 0.00 in0.0 mm 0.00 in0.0 mm
12:12 AM 31.2°F-0.4°C 27.2°F-2.7°C 85% Calm Calm -- 30.50 in1032.8 mb 0.00 in0.0 mm 0.00 in0.0 mm 0.00 in0.0 mm
12:17 AM 31.3°F-0.4°C 27.2°F-2.7°C 85% Calm Calm -- 30.50 in1032.8 mb 0.00 in0.0 mm 0.00 in0.0 mm 0.00 in0.0 mm
12:23 AM 31.6°F-0.2°C 27.6°F-2.4°C 85% Calm Calm -- 30.50 in1032.8 mb 0.00 in0.0 mm 0.00 in0.0 mm 0.00 in0.0 mm
12:27 AM 31.6°F-0.2°C 27.3°F-2.6°C 84% Calm Calm -- 30.50 in1032.8 mb 0.00 in0.0 mm 0.00 in0.0 mm 0.00 in0.0 mm
12:32 AM 31.7°F-0.2°C 27.3°F-2.6°C 84% Calm Calm -- 30.50 in1032.8 mb 0.00 in0.0 mm 0.00 in0.0 mm 0.00 in0.0 mm
12:40 AM 32.0°F0.0°C 27.9°F-2.3°C 85% Calm Calm -- 30.50 in1032.8 mb 0.00 in0.0 mm 0.00 in0.0 mm 0.00 in0.0 mm
12:43 AM 32.2°F0.1°C 28.1°F-2.2°C 85% Calm Calm -- 30.50 in1032.8 mb 0.00 in0.0 mm 0.00 in0.0 mm 0.00 in0.0 mm
12:47 AM 32.4°F0.2°C 28.0°F-2.2°C 84% Calm Calm -- 30.49 in1032.5 mb 0.00 in0.0 mm 0.00 in0.0 mm 0.00 in0.0 mm
12:52 AM 32.4°F0.2°C 28.0°F-2.2°C 84% Calm Calm -- 30.49 in1032.5 mb 0.00 in0.0 mm 0.00 in0.0 mm 0.00 in0.0 mm
12:57 AM 32.4°F0.2°C 27.7°F-2.4°C 83% Calm Calm -- 30.49 in1032.5 mb 0.00 in0.0 mm 0.00 in0.0 mm 0.00 in0.0 mm
01:03 AM 32.4°F0.2°C 27.7°F-2.4°C 83% Calm Calm -- 30.49 in1032.5 mb 0.00 in0.0 mm 0.00 in0.0 mm 0.00 in0.0 mm
01:08 AM 32.1°F0.1°C 27.5°F-2.5°C 83% Calm Calm -- 30.49 in1032.5 mb 0.00 in0.0 mm 0.00 in0.0 mm 0.00 in0.0 mm
01:12 AM 31.9°F-0.1°C 27.2°F-2.7°C 83% Calm Calm -- 30.49 in1032.5 mb 0.00 in0.0 mm 0.00 in0.0 mm 0.00 in0.0 mm
01:17 AM 31.6°F-0.2°C 27.0°F-2.8°C 83% Calm Calm -- 30.49 in1032.5 mb 0.00 in0.0 mm 0.00 in0.0 mm 0.00 in0.0 mm
01:23 AM 31.3°F-0.4°C 26.9°F-2.8°C 84% Calm Calm -- 30.49 in1032.5 mb 0.00 in0.0 mm 0.00 in0.0 mm 0.00 in0.0 mm
01:27 AM 31.0°F-0.6°C 26.6°F-3.0°C 84% Calm Calm -- 30.49 in1032.5 mb 0.00 in0.0 mm 0.00 in0.0 mm 0.00 in0.0 mm
01:32 AM 30.8°F-0.7°C 26.7°F-2.9°C 85% Calm Calm -- 30.49 in1032.5 mb 0.00 in0.0 mm 0.00 in0.0 mm 0.00 in0.0 mm
01:37 AM 30.6°F-0.8°C 26.8°F-2.9°C 86% 1.0 mph ESE1.6 kmh ESE -- 30.48 in1032.2 mb 0.00 in0.0 mm 0.00 in0.0 mm 0.00 in0.0 mm
01:43 AM 30.3°F-0.9°C 26.6°F-3.0°C 86% Calm Calm -- 30.48 in1032.2 mb 0.00 in0.0 mm 0.00 in0.0 mm 0.00 in0.0 mm
01:47 AM 30.2°F-1.0°C 26.7°F-2.9°C 87% Calm Calm -- 30.47 in1031.8 mb 0.00 in0.0 mm 0.00 in0.0 mm 0.00 in0.0 mm
01:52 AM 30.0°F-1.1°C 26.6°F-3.0°C 87% Calm Calm -- 30.47 in1031.8 mb 0.00 in0.0 mm 0.00 in0.0 mm 0.00 in0.0 mm
01:58 AM 29.9°F-1.2°C 26.4°F-3.1°C 87% Calm Calm -- 30.47 in1031.8 mb 0.00 in0.0 mm 0.00 in0.0 mm 0.00 in0.0 mm
02:02 AM 29.9°F-1.2°C 26.4°F-3.1°C 87% Calm Calm -- 30.47 in1031.8 mb 0.00 in0.0 mm 0.00 in0.0 mm 0.00 in0.0 mm
02:07 AM 29.9°F-1.2°C 26.4°F-3.1°C 87% Calm Calm -- 30.47 in1031.8 mb 0.00 in0.0 mm 0.00 in0.0 mm 0.00 in0.0 mm
02:12 AM 29.9°F-1.2°C 26.4°F-3.1°C 87% Calm Calm -- 30.47 in1031.8 mb 0.00 in0.0 mm 0.00 in0.0 mm 0.00 in0.0 mm
02:17 AM 29.8°F-1.2°C 26.4°F-3.1°C 87% Calm Calm -- 30.47 in1031.8 mb 0.00 in0.0 mm 0.00 in0.0 mm 0.00 in0.0 mm
02:23 AM 30.1°F-1.1°C 26.9°F-2.8°C 88% Calm Calm -- 30.47 in1031.8 mb 0.00 in0.0 mm 0.00 in0.0 mm 0.00 in0.0 mm
02:27 AM 30.4°F-0.9°C 27.2°F-2.7°C 88% Calm Calm -- 30.47 in1031.8 mb 0.00 in0.0 mm 0.00 in0.0 mm 0.00 in0.0 mm
02:32 AM 30.5°F-0.8°C 27.1°F-2.7°C 87% Calm Calm -- 30.47 in1031.8 mb 0.00 in0.0 mm 0.00 in0.0 mm 0.00 in0.0 mm
02:38 AM 30.5°F-0.8°C 27.1°F-2.7°C 87% Calm Calm -- 30.47 in1031.8 mb 0.00 in0.0 mm 0.00 in0.0 mm 0.00 in0.0 mm
02:42 AM 30.4°F-0.9°C 26.9°F-2.8°C 87% Calm Calm -- 30.47 in1031.8 mb 0.00 in0.0 mm 0.00 in0.0 mm 0.00 in0.0 mm
02:47 AM 30.4°F-0.9°C 26.9°F-2.8°C 87% Calm Calm -- 30.47 in1031.8 mb 0.00 in0.0 mm 0.00 in0.0 mm 0.00 in0.0 mm
02:52 AM 30.4°F-0.9°C 26.9°F-2.8°C 87% Calm Calm -- 30.47 in1031.8 mb 0.00 in0.0 mm 0.00 in0.0 mm 0.00 in0.0 mm
02:58 AM 30.3°F-0.9°C 26.9°F-2.8°C 87% Calm Calm -- 30.46 in1031.5 mb 0.00 in0.0 mm 0.00 in0.0 mm 0.00 in0.0 mm
03:02 AM 30.5°F-0.8°C 27.1°F-2.7°C 87% Calm Calm -- 30.46 in1031.5 mb 0.00 in0.0 mm 0.00 in0.0 mm 0.00 in0.0 mm
03:07 AM 30.6°F-0.8°C 27.1°F-2.7°C 87% Calm Calm -- 30.47 in1031.8 mb 0.00 in0.0 mm 0.00 in0.0 mm 0.00 in0.0 mm
03:12 AM 30.6°F-0.8°C 27.1°F-2.7°C 87% Calm Calm -- 30.47 in1031.8 mb 0.00 in0.0 mm 0.00 in0.0 mm 0.00 in0.0 mm
03:18 AM 30.4°F-0.9°C 26.6°F-3.0°C 86% Calm Calm -- 30.47 in1031.8 mb 0.00 in0.0 mm 0.00 in0.0 mm 0.00 in0.0 mm
03:22 AM 30.7°F-0.7°C 27.3°F-2.6°C 87% Calm Calm -- 30.47 in1031.8 mb 0.00 in0.0 mm 0.00 in0.0 mm 0.00 in0.0 mm
03:27 AM 30.8°F-0.7°C 27.3°F-2.6°C 87% Calm Calm -- 30.47 in1031.8 mb 0.00 in0.0 mm 0.00 in0.0 mm 0.00 in0.0 mm
03:32 AM 30.8°F-0.7°C 27.3°F-2.6°C 87% Calm Calm -- 30.47 in1031.8 mb 0.00 in0.0 mm 0.00 in0.0 mm 0.00 in0.0 mm
03:38 AM 30.9°F-0.6°C 27.5°F-2.5°C 87% Calm Calm -- 30.47 in1031.8 mb 0.00 in0.0 mm 0.00 in0.0 mm 0.00 in0.0 mm
03:47 AM 30.5°F-0.8°C 27.1°F-2.7°C 87% Calm Calm -- 30.47 in1031.8 mb 0.00 in0.0 mm 0.00 in0.0 mm 0.00 in0.0 mm
03:53 AM 30.3°F-0.9°C 26.9°F-2.8°C 87% Calm Calm -- 30.47 in1031.8 mb 0.00 in0.0 mm 0.00 in0.0 mm 0.00 in0.0 mm
04:07 AM 30.1°F-1.1°C 26.6°F-3.0°C 87% Calm Calm -- 30.46 in1031.5 mb 0.00 in0.0 mm 0.00 in0.0 mm 0.00 in0.0 mm
04:12 AM 29.9°F-1.2°C 26.4°F-3.1°C 87% Calm Calm -- 30.46 in1031.5 mb 0.00 in0.0 mm 0.00 in0.0 mm 0.00 in0.0 mm
04:17 AM 29.8°F-1.2°C 26.4°F-3.1°C 87% Calm Calm -- 30.46 in1031.5 mb 0.00 in0.0 mm 0.00 in0.0 mm 0.00 in0.0 mm
04:18 AM 29.8°F-1.2°C 26.4°F-3.1°C 87% Calm Calm -- 30.46 in1031.5 mb 0.00 in0.0 mm 0.00 in0.0 mm 0.00 in0.0 mm
04:22 AM 29.6°F-1.3°C 26.5°F-3.1°C 88% Calm Calm -- 30.46 in1031.5 mb 0.00 in0.0 mm 0.00 in0.0 mm 0.00 in0.0 mm
04:27 AM 29.5°F-1.4°C 26.3°F-3.2°C 88% Calm Calm -- 30.46 in1031.5 mb 0.00 in0.0 mm 0.00 in0.0 mm 0.00 in0.0 mm
04:33 AM 29.5°F-1.4°C 26.6°F-3.0°C 89% Calm Calm -- 30.46 in1031.5 mb 0.00 in0.0 mm 0.00 in0.0 mm 0.00 in0.0 mm
04:37 AM 29.5°F-1.4°C 26.6°F-3.0°C 89% Calm Calm -- 30.45 in1031.2 mb 0.00 in0.0 mm 0.00 in0.0 mm 0.00 in0.0 mm
04:42 AM 29.4°F-1.4°C 26.6°F-3.0°C 89% Calm Calm -- 30.46 in1031.5 mb 0.00 in0.0 mm 0.00 in0.0 mm 0.00 in0.0 mm
04:47 AM 29.3°F-1.5°C 26.4°F-3.1°C 89% Calm Calm -- 30.46 in1031.5 mb 0.00 in0.0 mm 0.00 in0.0 mm 0.00 in0.0 mm
04:53 AM 29.5°F-1.4°C 26.6°F-3.0°C 89% Calm Calm -- 30.46 in1031.5 mb 0.00 in0.0 mm 0.00 in0.0 mm 0.00 in0.0 mm
04:57 AM 29.8°F-1.2°C 27.0°F-2.8°C 89% Calm Calm -- 30.46 in1031.5 mb 0.00 in0.0 mm 0.00 in0.0 mm 0.00 in0.0 mm
05:02 AM 30.3°F-0.9°C 27.5°F-2.5°C 89% Calm Calm -- 30.46 in1031.5 mb 0.00 in0.0 mm 0.00 in0.0 mm 0.00 in0.0 mm
05:08 AM 30.6°F-0.8°C 27.4°F-2.6°C 88% Calm Calm -- 30.46 in1031.5 mb 0.00 in0.0 mm 0.00 in0.0 mm 0.00 in0.0 mm
05:13 AM 30.8°F-0.7°C 27.6°F-2.4°C 88% 1.0 mph S1.6 kmh S -- 30.45 in1031.2 mb 0.00 in0.0 mm 0.00 in0.0 mm 0.00 in0.0 mm
05:17 AM 30.9°F-0.6°C 27.5°F-2.5°C 87% 2.0 mph S3.2 kmh S -- 30.45 in1031.2 mb 0.00 in0.0 mm 0.00 in0.0 mm 0.00 in0.0 mm
05:22 AM 31.0°F-0.6°C 27.5°F-2.5°C 87% 2.0 mph S3.2 kmh S -- 30.45 in1031.2 mb 0.00 in0.0 mm 0.00 in0.0 mm 0.00 in0.0 mm
05:27 AM 31.3°F-0.4°C 27.8°F-2.3°C 87% 1.0 mph S1.6 kmh S -- 30.45 in1031.2 mb 0.00 in0.0 mm 0.00 in0.0 mm 0.00 in0.0 mm
05:33 AM 31.3°F-0.4°C 27.8°F-2.3°C 87% Calm Calm -- 30.44 in1030.8 mb 0.00 in0.0 mm 0.00 in0.0 mm 0.00 in0.0 mm
05:37 AM 31.2°F-0.4°C 27.5°F-2.5°C 86% 2.0 mph S3.2 kmh S -- 30.45 in1031.2 mb 0.00 in0.0 mm 0.00 in0.0 mm 0.00 in0.0 mm
05:42 AM 31.5°F-0.3°C 27.7°F-2.4°C 86% 2.0 mph S3.2 kmh S -- 30.45 in1031.2 mb 0.00 in0.0 mm 0.00 in0.0 mm 0.00 in0.0 mm
05:48 AM 31.9°F-0.1°C 27.8°F-2.3°C 85% 2.0 mph S3.2 kmh S -- 30.45 in1031.2 mb 0.00 in0.0 mm 0.00 in0.0 mm 0.00 in0.0 mm
05:52 AM 32.0°F0.0°C 27.9°F-2.3°C 85% Calm Calm -- 30.45 in1031.2 mb 0.00 in0.0 mm 0.00 in0.0 mm 0.00 in0.0 mm
05:57 AM 32.0°F0.0°C 27.7°F-2.4°C 84% Calm Calm -- 30.45 in1031.2 mb 0.00 in0.0 mm 0.00 in0.0 mm 0.00 in0.0 mm
06:02 AM 32.0°F0.0°C 27.7°F-2.4°C 84% Calm Calm -- 30.45 in1031.2 mb 0.00 in0.0 mm 0.00 in0.0 mm 0.00 in0.0 mm
06:07 AM 32.1°F0.1°C 27.8°F-2.3°C 84% Calm Calm -- 30.45 in1031.2 mb 0.00 in0.0 mm 0.00 in0.0 mm 0.00 in0.0 mm
06:12 AM 32.3°F0.2°C 27.7°F-2.4°C 83% Calm Calm -- 30.46 in1031.5 mb 0.00 in0.0 mm 0.00 in0.0 mm 0.00 in0.0 mm
06:17 AM 32.3°F0.2°C 27.7°F-2.4°C 83% Calm Calm -- 30.47 in1031.8 mb 0.00 in0.0 mm 0.00 in0.0 mm 0.00 in0.0 mm
06:22 AM 32.3°F0.2°C 27.7°F-2.4°C 83% Calm Calm -- 30.46 in1031.5 mb 0.00 in0.0 mm 0.00 in0.0 mm 0.00 in0.0 mm
06:28 AM 32.2°F0.1°C 27.5°F-2.5°C 83% Calm Calm -- 30.46 in1031.5 mb 0.00 in0.0 mm 0.00 in0.0 mm 0.00 in0.0 mm
06:32 AM 32.0°F0.0°C 27.4°F-2.6°C 83% Calm Calm -- 30.46 in1031.5 mb 0.00 in0.0 mm 0.00 in0.0 mm 0.00 in0.0 mm
06:37 AM 31.7°F-0.2°C 27.3°F-2.6°C 84% Calm Calm -- 30.47 in1031.8 mb 0.00 in0.0 mm 0.00 in0.0 mm 0.00 in0.0 mm
06:43 AM 31.3°F-0.4°C 26.9°F-2.8°C 84% Calm Calm -- 30.47 in1031.8 mb 0.00 in0.0 mm 0.00 in0.0 mm 0.00 in0.0 mm
06:48 AM 31.0°F-0.6°C 26.9°F-2.8°C 85% Calm Calm -- 30.46 in1031.5 mb 0.00 in0.0 mm 0.00 in0.0 mm 0.00 in0.0 mm
06:52 AM 30.6°F-0.8°C 26.5°F-3.1°C 85% Calm Calm -- 30.46 in1031.5 mb 0.00 in0.0 mm 0.00 in0.0 mm 0.00 in0.0 mm
06:57 AM 30.5°F-0.8°C 26.5°F-3.1°C 85% Calm Calm -- 30.46 in1031.5 mb 0.00 in0.0 mm 0.00 in0.0 mm 0.00 in0.0 mm
07:03 AM 30.3°F-0.9°C 26.6°F-3.0°C 86% Calm Calm -- 30.46 in1031.5 mb 0.00 in0.0 mm 0.00 in0.0 mm 0.00 in0.0 mm
07:08 AM 30.2°F-1.0°C 26.7°F-2.9°C 87% Calm Calm -- 30.46 in1031.5 mb 0.00 in0.0 mm 0.00 in0.0 mm 0.00 in0.0 mm
07:12 AM 30.2°F-1.0°C 26.7°F-2.9°C 87% Calm Calm -- 30.46 in1031.5 mb 0.00 in0.0 mm 0.00 in0.0 mm 0.00 in0.0 mm
07:17 AM 30.2°F-1.0°C 26.7°F-2.9°C 87% Calm Calm -- 30.46 in1031.5 mb 0.00 in0.0 mm 0.00 in0.0 mm 0.00 in0.0 mm
07:22 AM 30.2°F-1.0°C 26.7°F-2.9°C 87% Calm Calm -- 30.45 in1031.2 mb 0.00 in0.0 mm 0.00 in0.0 mm 0.00 in0.0 mm
07:28 AM 30.1°F-1.1°C 26.6°F-3.0°C 87% Calm Calm -- 30.45 in1031.2 mb 0.00 in0.0 mm 0.00 in0.0 mm 0.00 in0.0 mm
07:32 AM 30.0°F-1.1°C 26.6°F-3.0°C 87% Calm Calm -- 30.44 in1030.8 mb 0.00 in0.0 mm 0.00 in0.0 mm 0.00 in0.0 mm
07:37 AM 30.0°F-1.1°C 26.9°F-2.8°C 88% Calm Calm -- 30.44 in1030.8 mb 0.00 in0.0 mm 0.00 in0.0 mm 0.00 in0.0 mm
07:43 AM 30.2°F-1.0°C 27.3°F-2.6°C 89% Calm Calm -- 30.44 in1030.8 mb 0.00 in0.0 mm 0.00 in0.0 mm 0.00 in0.0 mm
07:47 AM 30.5°F-0.8°C 27.4°F-2.6°C 88% Calm Calm -- 30.44 in1030.8 mb 0.00 in0.0 mm 0.00 in0.0 mm 0.00 in0.0 mm
07:52 AM 30.7°F-0.7°C 27.6°F-2.4°C 88% Calm Calm -- 30.44 in1030.8 mb 0.00 in0.0 mm 0.00 in0.0 mm 0.00 in0.0 mm
07:57 AM 31.0°F-0.6°C 27.7°F-2.4°C 88% Calm Calm -- 30.44 in1030.8 mb 0.00 in0.0 mm 0.00 in0.0 mm 0.00 in0.0 mm
08:02 AM 31.4°F-0.3°C 28.3°F-2.1°C 88% 2.0 mph SSE3.2 kmh SSE -- 30.45 in1031.2 mb 0.00 in0.0 mm 0.00 in0.0 mm 0.00 in0.0 mm
08:07 AM 31.5°F-0.3°C 28.0°F-2.2°C 87% Calm Calm -- 30.45 in1031.2 mb 0.00 in0.0 mm 0.00 in0.0 mm 0.00 in0.0 mm
08:12 AM 31.7°F-0.2°C 28.2°F-2.1°C 87% Calm Calm -- 30.45 in1031.2 mb 0.00 in0.0 mm 0.00 in0.0 mm 0.00 in0.0 mm
08:17 AM 31.8°F-0.1°C 28.3°F-2.1°C 87% Calm Calm -- 30.44 in1030.8 mb 0.00 in0.0 mm 0.00 in0.0 mm 0.00 in0.0 mm
08:23 AM 32.0°F0.0°C 28.8°F-1.8°C 88% 1.0 mph ESE1.6 kmh ESE -- 30.44 in1030.8 mb 0.00 in0.0 mm 0.00 in0.0 mm 0.00 in0.0 mm
08:27 AM 32.2°F0.1°C 29.0°F-1.7°C 88% Calm Calm -- 30.44 in1030.8 mb 0.00 in0.0 mm 0.00 in0.0 mm 0.00 in0.0 mm
08:32 AM 32.4°F0.2°C 29.2°F-1.6°C 88% Calm Calm -- 30.44 in1030.8 mb 0.00 in0.0 mm 0.00 in0.0 mm 0.00 in0.0 mm
08:38 AM 32.5°F0.3°C 29.3°F-1.5°C 88% Calm Calm -- 30.45 in1031.2 mb 0.00 in0.0 mm 0.00 in0.0 mm 0.00 in0.0 mm
08:43 AM 32.8°F0.4°C 29.5°F-1.4°C 88% 1.0 mph ENE1.6 kmh ENE -- 30.45 in1031.2 mb 0.00 in0.0 mm 0.00 in0.0 mm 0.00 in0.0 mm
08:47 AM 33.1°F0.6°C 29.9°F-1.2°C 88% 2.0 mph NE3.2 kmh NE -- 30.45 in1031.2 mb 0.00 in0.0 mm 0.00 in0.0 mm 0.00 in0.0 mm
08:52 AM 33.3°F0.7°C 30.0°F-1.1°C 88% 2.0 mph NE3.2 kmh NE -- 30.45 in1031.2 mb 0.00 in0.0 mm 0.00 in0.0 mm 0.00 in0.0 mm
08:58 AM 33.6°F0.9°C 30.4°F-0.9°C 88% Calm Calm -- 30.45 in1031.2 mb 0.00 in0.0 mm 0.00 in0.0 mm 0.00 in0.0 mm
09:03 AM 33.9°F1.1°C 30.8°F-0.7°C 88% Calm Calm -- 30.46 in1031.5 mb 0.00 in0.0 mm 0.00 in0.0 mm 0.00 in0.0 mm
09:07 AM 34.2°F1.2°C 30.9°F-0.6°C 88% Calm Calm -- 30.46 in1031.5 mb 0.00 in0.0 mm 0.00 in0.0 mm 0.00 in0.0 mm
09:12 AM 34.5°F1.4°C 31.0°F-0.6°C 87% Calm Calm -- 30.46 in1031.5 mb 0.00 in0.0 mm 0.00 in0.0 mm 0.00 in0.0 mm
09:17 AM 34.8°F1.6°C 31.4°F-0.3°C 87% Calm Calm -- 30.46 in1031.5 mb 0.00 in0.0 mm 0.00 in0.0 mm 0.00 in0.0 mm
09:23 AM 35.2°F1.8°C 31.7°F-0.2°C 87% Calm Calm -- 30.46 in1031.5 mb 0.00 in0.0 mm 0.00 in0.0 mm 0.00 in0.0 mm
09:27 AM 35.5°F1.9°C 31.6°F-0.2°C 86% Calm Calm -- 30.47 in1031.8 mb 0.00 in0.0 mm 0.00 in0.0 mm 0.00 in0.0 mm
09:32 AM 35.7°F2.1°C 32.0°F0.0°C 86% 1.0 mph S1.6 kmh S -- 30.47 in1031.8 mb 0.00 in0.0 mm 0.00 in0.0 mm 0.00 in0.0 mm
09:47 AM 37.0°F2.8°C 32.6°F0.3°C 84% Calm Calm -- 30.47 in1031.8 mb 0.00 in0.0 mm 0.00 in0.0 mm 0.00 in0.0 mm
09:52 AM 37.6°F3.1°C 32.8°F0.4°C 83% Calm Calm -- 30.47 in1031.8 mb 0.00 in0.0 mm 0.00 in0.0 mm 0.00 in0.0 mm
09:57 AM 38.0°F3.3°C 32.9°F0.5°C 82% Calm Calm -- 30.48 in1032.2 mb 0.00 in0.0 mm 0.00 in0.0 mm 0.00 in0.0 mm
10:02 AM 38.5°F3.6°C 33.4°F0.8°C 82% Calm Calm -- 30.48 in1032.2 mb 0.00 in0.0 mm 0.00 in0.0 mm 0.00 in0.0 mm
10:07 AM 39.1°F3.9°C 32.7°F0.4°C 78% 1.0 mph NE1.6 kmh NE -- 30.49 in1032.5 mb 0.00 in0.0 mm 0.00 in0.0 mm 0.00 in0.0 mm
10:12 AM 39.6°F4.2°C 33.5°F0.8°C 79% 2.0 mph NE3.2 kmh NE -- 30.48 in1032.2 mb 0.00 in0.0 mm 0.00 in0.0 mm 0.00 in0.0 mm
10:17 AM 39.9°F4.4°C 33.5°F0.8°C 78% 2.0 mph E3.2 kmh E -- 30.47 in1031.8 mb 0.00 in0.0 mm 0.00 in0.0 mm 0.00 in0.0 mm
10:23 AM 40.2°F4.6°C 33.2°F0.7°C 76% 3.0 mph NW4.8 kmh NW -- 30.47 in1031.8 mb 0.00 in0.0 mm 0.00 in0.0 mm 0.00 in0.0 mm
10:27 AM 40.2°F4.6°C 32.2°F0.1°C 73% 1.0 mph N1.6 kmh N -- 30.48 in1032.2 mb 0.00 in0.0 mm 0.00 in0.0 mm 0.00 in0.0 mm
10:32 AM 40.2°F4.6°C 32.2°F0.1°C 73% 1.0 mph NW1.6 kmh NW -- 30.48 in1032.2 mb 0.00 in0.0 mm 0.00 in0.0 mm 0.00 in0.0 mm
10:38 AM 40.5°F4.7°C 32.7°F0.4°C 74% 1.0 mph E1.6 kmh E -- 30.48 in1032.2 mb 0.00 in0.0 mm 0.00 in0.0 mm 0.00 in0.0 mm
10:42 AM 40.7°F4.8°C 32.2°F0.1°C 72% 1.0 mph E1.6 kmh E -- 30.48 in1032.2 mb 0.00 in0.0 mm 0.00 in0.0 mm 0.00 in0.0 mm
10:47 AM 41.0°F5.0°C 32.6°F0.3°C 72% 1.0 mph SSW1.6 kmh SSW -- 30.47 in1031.8 mb 0.00 in0.0 mm 0.00 in0.0 mm 0.00 in0.0 mm
10:52 AM 41.4°F5.2°C 32.9°F0.5°C 72% 2.0 mph NNW3.2 kmh NNW -- 30.47 in1031.8 mb 0.00 in0.0 mm 0.00 in0.0 mm 0.00 in0.0 mm
10:58 AM 41.7°F5.4°C 33.3°F0.7°C 72% Calm Calm -- 30.47 in1031.8 mb 0.00 in0.0 mm 0.00 in0.0 mm 0.00 in0.0 mm
11:03 AM 42.2°F5.7°C 33.4°F0.8°C 71% 2.0 mph NNE3.2 kmh NNE -- 30.47 in1031.8 mb 0.00 in0.0 mm 0.00 in0.0 mm 0.00 in0.0 mm
11:07 AM 42.4°F5.8°C 33.2°F0.7°C 70% 3.0 mph NW4.8 kmh NW -- 30.46 in1031.5 mb 0.00 in0.0 mm 0.00 in0.0 mm 0.00 in0.0 mm
11:12 AM 42.4°F5.8°C 33.6°F0.9°C 71% 2.0 mph E3.2 kmh E -- 30.46 in1031.5 mb 0.00 in0.0 mm 0.00 in0.0 mm 0.00 in0.0 mm
11:18 AM 42.4°F5.8°C 33.2°F0.7°C 70% 2.0 mph NE3.2 kmh NE -- 30.46 in1031.5 mb 0.00 in0.0 mm 0.00 in0.0 mm 0.00 in0.0 mm
11:23 AM 42.4°F5.8°C 33.2°F0.7°C 70% 1.0 mph E1.6 kmh E -- 30.46 in1031.5 mb 0.00 in0.0 mm 0.00 in0.0 mm 0.00 in0.0 mm
11:27 AM 42.7°F5.9°C 33.8°F1.0°C 71% 2.0 mph E3.2 kmh E -- 30.46 in1031.5 mb 0.00 in0.0 mm 0.00 in0.0 mm 0.00 in0.0 mm
11:32 AM 42.9°F6.1°C 33.8°F1.0°C 70% 3.0 mph NNE4.8 kmh NNE -- 30.46 in1031.5 mb 0.00 in0.0 mm 0.00 in0.0 mm 0.00 in0.0 mm
11:38 AM 43.1°F6.2°C 33.9°F1.1°C 70% 2.0 mph S3.2 kmh S -- 30.45 in1031.2 mb 0.00 in0.0 mm 0.00 in0.0 mm 0.00 in0.0 mm
11:42 AM 43.5°F6.4°C 34.3°F1.3°C 70% 2.0 mph NE3.2 kmh NE -- 30.45 in1031.2 mb 0.00 in0.0 mm 0.00 in0.0 mm 0.00 in0.0 mm
11:47 AM 43.9°F6.6°C 33.9°F1.1°C 68% 2.0 mph NW3.2 kmh NW -- 30.45 in1031.2 mb 0.00 in0.0 mm 0.00 in0.0 mm 0.00 in0.0 mm
11:52 AM 44.1°F6.7°C 34.1°F1.2°C 68% 1.0 mph SSW1.6 kmh SSW -- 30.45 in1031.2 mb 0.00 in0.0 mm 0.00 in0.0 mm 0.00 in0.0 mm
11:57 AM 44.4°F6.9°C 34.0°F1.1°C 67% 2.0 mph SW3.2 kmh SW -- 30.44 in1030.8 mb 0.00 in0.0 mm 0.00 in0.0 mm 0.00 in0.0 mm
12:02 PM 44.8°F7.1°C 34.0°F1.1°C 66% 3.0 mph NW4.8 kmh NW -- 30.44 in1030.8 mb 0.00 in0.0 mm 0.00 in0.0 mm 0.00 in0.0 mm
12:07 PM 44.9°F7.2°C 34.5°F1.4°C 67% 2.0 mph ENE3.2 kmh ENE -- 30.44 in1030.8 mb 0.00 in0.0 mm 0.00 in0.0 mm 0.00 in0.0 mm
12:12 PM 45.2°F7.3°C 34.0°F1.1°C 65% 1.0 mph WSW1.6 kmh WSW -- 30.44 in1030.8 mb 0.00 in0.0 mm 0.00 in0.0 mm 0.00 in0.0 mm
12:18 PM 45.7°F7.6°C 34.9°F1.6°C 66% 1.0 mph SE1.6 kmh SE -- 30.43 in1030.5 mb 0.00 in0.0 mm 0.00 in0.0 mm 0.00 in0.0 mm
12:22 PM 45.9°F7.7°C 34.6°F1.4°C 65% 2.0 mph E3.2 kmh E -- 30.43 in1030.5 mb 0.00 in0.0 mm 0.00 in0.0 mm 0.00 in0.0 mm
12:27 PM 45.9°F7.7°C 34.2°F1.2°C 64% 1.0 mph W1.6 kmh W -- 30.42 in1030.1 mb 0.00 in0.0 mm 0.00 in0.0 mm 0.00 in0.0 mm
12:32 PM 46.3°F7.9°C 35.0°F1.7°C 65% 1.0 mph SE1.6 kmh SE -- 30.42 in1030.1 mb 0.00 in0.0 mm 0.00 in0.0 mm 0.00 in0.0 mm
12:37 PM 46.7°F8.2°C 35.1°F1.7°C 64% Calm Calm -- 30.42 in1030.1 mb 0.00 in0.0 mm 0.00 in0.0 mm 0.00 in0.0 mm
12:42 PM 47.0°F8.3°C 35.3°F1.8°C 64% Calm Calm -- 30.42 in1030.1 mb 0.00 in0.0 mm 0.00 in0.0 mm 0.00 in0.0 mm
12:47 PM 47.1°F8.4°C 35.4°F1.9°C 64% Calm Calm -- 30.41 in1029.8 mb 0.00 in0.0 mm 0.00 in0.0 mm 0.00 in0.0 mm
12:52 PM 47.7°F8.7°C 34.3°F1.3°C 60% 2.0 mph SSW3.2 kmh SSW -- 30.41 in1029.8 mb 0.00 in0.0 mm 0.00 in0.0 mm 0.00 in0.0 mm
12:58 PM 48.2°F9.0°C 34.4°F1.3°C 59% Calm Calm -- 30.41 in1029.8 mb 0.00 in0.0 mm 0.00 in0.0 mm 0.00 in0.0 mm
01:02 PM 48.1°F8.9°C 34.7°F1.5°C 60% Calm Calm -- 30.40 in1029.5 mb 0.00 in0.0 mm 0.00 in0.0 mm 0.00 in0.0 mm
01:07 PM 48.8°F9.3°C 35.3°F1.8°C 60% Calm Calm -- 30.40 in1029.5 mb 0.00 in0.0 mm 0.00 in0.0 mm 0.00 in0.0 mm
01:12 PM 49.1°F9.5°C 35.3°F1.8°C 59% Calm Calm -- 30.40 in1029.5 mb 0.00 in0.0 mm 0.00 in0.0 mm 0.00 in0.0 mm
01:18 PM 49.1°F9.5°C 35.3°F1.8°C 59% Calm Calm -- 30.39 in1029.1 mb 0.00 in0.0 mm 0.00 in0.0 mm 0.00 in0.0 mm
01:22 PM 49.4°F9.7°C 35.6°F2.0°C 59% 2.0 mph SSE3.2 kmh SSE -- 30.40 in1029.5 mb 0.00 in0.0 mm 0.00 in0.0 mm 0.00 in0.0 mm
01:27 PM 49.6°F9.8°C 35.3°F1.8°C 58% 1.0 mph S1.6 kmh S -- 30.40 in1029.5 mb 0.00 in0.0 mm 0.00 in0.0 mm 0.00 in0.0 mm
01:32 PM 49.6°F9.8°C 34.9°F1.6°C 57% Calm Calm -- 30.39 in1029.1 mb 0.00 in0.0 mm 0.00 in0.0 mm 0.00 in0.0 mm
01:38 PM 49.8°F9.9°C 35.1°F1.7°C 57% 1.0 mph SSE1.6 kmh SSE -- 30.39 in1029.1 mb 0.00 in0.0 mm 0.00 in0.0 mm 0.00 in0.0 mm
01:42 PM 50.1°F10.1°C 35.4°F1.9°C 57% Calm Calm -- 30.39 in1029.1 mb 0.00 in0.0 mm 0.00 in0.0 mm 0.00 in0.0 mm
01:47 PM 50.1°F10.1°C 34.9°F1.6°C 56% 1.0 mph SSE1.6 kmh SSE -- 30.39 in1029.1 mb 0.00 in0.0 mm 0.00 in0.0 mm 0.00 in0.0 mm
01:52 PM 50.4°F10.2°C 34.7°F1.5°C 55% 1.0 mph S1.6 kmh S -- 30.38 in1028.8 mb 0.00 in0.0 mm 0.00 in0.0 mm 0.00 in0.0 mm
01:58 PM 50.5°F10.3°C 34.4°F1.3°C 54% Calm Calm -- 30.38 in1028.8 mb 0.00 in0.0 mm 0.00 in0.0 mm 0.00 in0.0 mm
02:02 PM 50.5°F10.3°C 33.9°F1.1°C 53% Calm Calm -- 30.38 in1028.8 mb 0.00 in0.0 mm 0.00 in0.0 mm 0.00 in0.0 mm
02:07 PM 50.3°F10.2°C 34.2°F1.2°C 54% 2.0 mph SSE3.2 kmh SSE -- 30.38 in1028.8 mb 0.00 in0.0 mm 0.00 in0.0 mm 0.00 in0.0 mm
02:13 PM 50.4°F10.2°C 33.7°F0.9°C 53% Calm Calm -- 30.38 in1028.8 mb 0.00 in0.0 mm 0.00 in0.0 mm 0.00 in0.0 mm
02:17 PM 50.5°F10.3°C 34.4°F1.3°C 54% 1.0 mph S1.6 kmh S -- 30.38 in1028.8 mb 0.00 in0.0 mm 0.00 in0.0 mm 0.00 in0.0 mm
02:22 PM 50.6°F10.3°C 33.9°F1.1°C 53% 1.0 mph SSE1.6 kmh SSE -- 30.38 in1028.8 mb 0.00 in0.0 mm 0.00 in0.0 mm 0.00 in0.0 mm
02:27 PM 50.7°F10.4°C 35.0°F1.7°C 55% Calm Calm -- 30.38 in1028.8 mb 0.00 in0.0 mm 0.00 in0.0 mm 0.00 in0.0 mm
02:32 PM 50.7°F10.4°C 35.0°F1.7°C 55% Calm Calm -- 30.38 in1028.8 mb 0.00 in0.0 mm 0.00 in0.0 mm 0.00 in0.0 mm
02:37 PM 50.6°F10.3°C 35.3°F1.8°C 56% Calm Calm -- 30.37 in1028.4 mb 0.00 in0.0 mm 0.00 in0.0 mm 0.00 in0.0 mm
02:42 PM 50.3°F10.2°C 36.0°F2.2°C 58% 1.0 mph ESE1.6 kmh ESE -- 30.38 in1028.8 mb 0.00 in0.0 mm 0.00 in0.0 mm 0.00 in0.0 mm
02:47 PM 50.0°F10.0°C 35.7°F2.1°C 58% Calm Calm -- 30.37 in1028.4 mb 0.00 in0.0 mm 0.00 in0.0 mm 0.00 in0.0 mm
02:53 PM 49.7°F9.8°C 35.8°F2.1°C 59% 1.0 mph E1.6 kmh E -- 30.37 in1028.4 mb 0.00 in0.0 mm 0.00 in0.0 mm 0.00 in0.0 mm
02:57 PM 49.4°F9.7°C 36.0°F2.2°C 60% 2.0 mph E3.2 kmh E -- 30.38 in1028.8 mb 0.00 in0.0 mm 0.00 in0.0 mm 0.00 in0.0 mm
03:02 PM 49.2°F9.6°C 36.3°F2.4°C 61% 2.0 mph SE3.2 kmh SE -- 30.37 in1028.4 mb 0.00 in0.0 mm 0.00 in0.0 mm 0.00 in0.0 mm
03:07 PM 49.0°F9.4°C 35.5°F1.9°C 60% 1.0 mph S1.6 kmh S -- 30.37 in1028.4 mb 0.00 in0.0 mm 0.00 in0.0 mm 0.00 in0.0 mm
03:13 PM 48.9°F9.4°C 35.9°F2.2°C 61% 3.0 mph NNE4.8 kmh NNE -- 30.37 in1028.4 mb 0.00 in0.0 mm 0.00 in0.0 mm 0.00 in0.0 mm
03:17 PM 48.7°F9.3°C 35.8°F2.1°C 61% 2.0 mph E3.2 kmh E -- 30.37 in1028.4 mb 0.00 in0.0 mm 0.00 in0.0 mm 0.00 in0.0 mm
03:22 PM 48.7°F9.3°C 36.2°F2.3°C 62% 1.0 mph ESE1.6 kmh ESE -- 30.38 in1028.8 mb 0.00 in0.0 mm 0.00 in0.0 mm 0.00 in0.0 mm
03:27 PM 48.7°F9.3°C 36.2°F2.3°C 62% 1.0 mph E1.6 kmh E -- 30.37 in1028.4 mb 0.00 in0.0 mm 0.00 in0.0 mm 0.00 in0.0 mm
03:33 PM 48.5°F9.2°C 36.0°F2.2°C 62% 1.0 mph ESE1.6 kmh ESE -- 30.38 in1028.8 mb 0.00 in0.0 mm 0.00 in0.0 mm 0.00 in0.0 mm
03:37 PM 48.4°F9.1°C 36.2°F2.3°C 63% 1.0 mph SE1.6 kmh SE -- 30.37 in1028.4 mb 0.00 in0.0 mm 0.00 in0.0 mm 0.00 in0.0 mm
03:42 PM 48.4°F9.1°C 36.2°F2.3°C 63% Calm Calm -- 30.38 in1028.8 mb 0.00 in0.0 mm 0.00 in0.0 mm 0.00 in0.0 mm
03:47 PM 48.3°F9.1°C 35.8°F2.1°C 62% Calm Calm -- 30.38 in1028.8 mb 0.00 in0.0 mm 0.00 in0.0 mm 0.00 in0.0 mm
03:57 PM 48.2°F9.0°C 36.1°F2.3°C 63% Calm Calm -- 30.38 in1028.8 mb 0.00 in0.0 mm 0.00 in0.0 mm 0.00 in0.0 mm
04:03 PM 48.1°F8.9°C 36.3°F2.4°C 64% Calm Calm -- 30.38 in1028.8 mb 0.00 in0.0 mm 0.00 in0.0 mm 0.00 in0.0 mm
04:07 PM 48.0°F8.9°C 36.3°F2.4°C 64% Calm Calm -- 30.38 in1028.8 mb 0.00 in0.0 mm 0.00 in0.0 mm 0.00 in0.0 mm
04:12 PM 47.9°F8.8°C 35.7°F2.1°C 63% Calm Calm -- 30.38 in1028.8 mb 0.00 in0.0 mm 0.00 in0.0 mm 0.00 in0.0 mm
04:18 PM 47.7°F8.7°C 36.0°F2.2°C 64% Calm Calm -- 30.38 in1028.8 mb 0.00 in0.0 mm 0.00 in0.0 mm 0.00 in0.0 mm
04:22 PM 47.6°F8.7°C 36.4°F2.4°C 65% Calm Calm -- 30.38 in1028.8 mb 0.00 in0.0 mm 0.00 in0.0 mm 0.00 in0.0 mm
04:27 PM 47.5°F8.6°C 36.2°F2.3°C 65% Calm Calm -- 30.38 in1028.8 mb 0.00 in0.0 mm 0.00 in0.0 mm 0.00 in0.0 mm
04:32 PM 47.4°F8.6°C 36.2°F2.3°C 65% Calm Calm -- 30.38 in1028.8 mb 0.00 in0.0 mm 0.00 in0.0 mm 0.00 in0.0 mm
04:37 PM 47.3°F8.5°C 36.4°F2.4°C 66% Calm Calm -- 30.38 in1028.8 mb 0.00 in0.0 mm 0.00 in0.0 mm 0.00 in0.0 mm
04:43 PM 47.2°F8.4°C 36.2°F2.3°C 66% Calm Calm -- 30.38 in1028.8 mb 0.00 in0.0 mm 0.00 in0.0 mm 0.00 in0.0 mm
04:47 PM 47.2°F8.4°C 36.2°F2.3°C 66% Calm Calm -- 30.37 in1028.4 mb 0.00 in0.0 mm 0.00 in0.0 mm 0.00 in0.0 mm
04:52 PM 47.0°F8.3°C 36.4°F2.4°C 67% Calm Calm -- 30.37 in1028.4 mb 0.00 in0.0 mm 0.00 in0.0 mm 0.00 in0.0 mm
04:58 PM 46.8°F8.2°C 36.3°F2.4°C 67% Calm Calm -- 30.37 in1028.4 mb 0.00 in0.0 mm 0.00 in0.0 mm 0.00 in0.0 mm
05:02 PM 46.7°F8.2°C 36.3°F2.4°C 67% Calm Calm -- 30.37 in1028.4 mb 0.00 in0.0 mm 0.00 in0.0 mm 0.00 in0.0 mm
05:07 PM 46.5°F8.1°C 36.1°F2.3°C 67% Calm Calm -- 30.36 in1028.1 mb 0.00 in0.0 mm 0.00 in0.0 mm 0.00 in0.0 mm
05:12 PM 46.5°F8.1°C 35.7°F2.1°C 66% 1.0 mph SSE1.6 kmh SSE -- 30.36 in1028.1 mb 0.00 in0.0 mm 0.00 in0.0 mm 0.00 in0.0 mm
05:17 PM 46.4°F8.0°C 35.9°F2.2°C 67% 1.0 mph SSE1.6 kmh SSE -- 30.36 in1028.1 mb 0.00 in0.0 mm 0.00 in0.0 mm 0.00 in0.0 mm
05:27 PM 46.2°F7.9°C 35.8°F2.1°C 67% Calm Calm -- 30.36 in1028.1 mb 0.00 in0.0 mm 0.00 in0.0 mm 0.00 in0.0 mm
05:32 PM 46.1°F7.8°C 35.6°F2.0°C 67% Calm Calm -- 30.35 in1027.8 mb 0.00 in0.0 mm 0.00 in0.0 mm 0.00 in0.0 mm
05:37 PM 46.0°F7.8°C 35.6°F2.0°C 67% 1.0 mph SSE1.6 kmh SSE -- 30.35 in1027.8 mb 0.00 in0.0 mm 0.00 in0.0 mm 0.00 in0.0 mm
05:43 PM 45.9°F7.7°C 35.4°F1.9°C 67% Calm Calm -- 30.36 in1028.1 mb 0.00 in0.0 mm 0.00 in0.0 mm 0.00 in0.0 mm
05:47 PM 46.0°F7.8°C 35.6°F2.0°C 67% 1.0 mph S1.6 kmh S -- 30.35 in1027.8 mb 0.00 in0.0 mm 0.00 in0.0 mm 0.00 in0.0 mm
05:52 PM 45.9°F7.7°C 35.4°F1.9°C 67% 2.0 mph S3.2 kmh S -- 30.36 in1028.1 mb 0.00 in0.0 mm 0.00 in0.0 mm 0.00 in0.0 mm
05:57 PM 45.8°F7.7°C 35.4°F1.9°C 67% 2.0 mph SSE3.2 kmh SSE -- 30.36 in1028.1 mb 0.00 in0.0 mm 0.00 in0.0 mm 0.00 in0.0 mm
06:03 PM 45.8°F7.7°C 35.4°F1.9°C 67% Calm Calm -- 30.36 in1028.1 mb 0.00 in0.0 mm 0.00 in0.0 mm 0.00 in0.0 mm
06:07 PM 45.7°F7.6°C 35.2°F1.8°C 67% Calm Calm -- 30.36 in1028.1 mb 0.00 in0.0 mm 0.00 in0.0 mm 0.00 in0.0 mm
06:12 PM 45.7°F7.6°C 35.6°F2.0°C 68% Calm Calm -- 30.36 in1028.1 mb 0.00 in0.0 mm 0.00 in0.0 mm 0.00 in0.0 mm
06:17 PM 45.5°F7.5°C 35.1°F1.7°C 67% Calm Calm -- 30.37 in1028.4 mb 0.00 in0.0 mm 0.00 in0.0 mm 0.00 in0.0 mm
06:23 PM 45.5°F7.5°C 35.4°F1.9°C 68% Calm Calm -- 30.36 in1028.1 mb 0.00 in0.0 mm 0.00 in0.0 mm 0.00 in0.0 mm
06:27 PM 45.3°F7.4°C 35.3°F1.8°C 68% Calm Calm -- 30.36 in1028.1 mb 0.00 in0.0 mm 0.00 in0.0 mm 0.00 in0.0 mm
06:32 PM 45.2°F7.3°C 35.1°F1.7°C 68% Calm Calm -- 30.37 in1028.4 mb 0.00 in0.0 mm 0.00 in0.0 mm 0.00 in0.0 mm
06:38 PM 45.1°F7.3°C 35.1°F1.7°C 68% Calm Calm -- 30.37 in1028.4 mb 0.00 in0.0 mm 0.00 in0.0 mm 0.00 in0.0 mm
06:42 PM 45.0°F7.2°C 34.9°F1.6°C 68% Calm Calm -- 30.37 in1028.4 mb 0.00 in0.0 mm 0.00 in0.0 mm 0.00 in0.0 mm
06:47 PM 45.0°F7.2°C 34.9°F1.6°C 68% Calm Calm -- 30.37 in1028.4 mb 0.00 in0.0 mm 0.00 in0.0 mm 0.00 in0.0 mm
06:52 PM 45.0°F7.2°C 35.3°F1.8°C 69% Calm Calm -- 30.37 in1028.4 mb 0.00 in0.0 mm 0.00 in0.0 mm 0.00 in0.0 mm
06:57 PM 44.9°F7.2°C 35.3°F1.8°C 69% Calm Calm -- 30.37 in1028.4 mb 0.00 in0.0 mm 0.00 in0.0 mm 0.00 in0.0 mm
07:02 PM 44.8°F7.1°C 35.1°F1.7°C 69% Calm Calm -- 30.37 in1028.4 mb 0.00 in0.0 mm 0.00 in0.0 mm 0.00 in0.0 mm
07:07 PM 44.7°F7.1°C 35.5°F1.9°C 70% Calm Calm -- 30.36 in1028.1 mb 0.00 in0.0 mm 0.00 in0.0 mm 0.00 in0.0 mm
07:12 PM 44.7°F7.1°C 35.5°F1.9°C 70% Calm Calm -- 30.36 in1028.1 mb 0.00 in0.0 mm 0.00 in0.0 mm 0.00 in0.0 mm
07:18 PM 44.6°F7.0°C 35.3°F1.8°C 70% Calm Calm -- 30.36 in1028.1 mb 0.00 in0.0 mm 0.00 in0.0 mm 0.00 in0.0 mm
07:22 PM 44.6°F7.0°C 35.3°F1.8°C 70% Calm Calm -- 30.36 in1028.1 mb 0.00 in0.0 mm 0.00 in0.0 mm 0.00 in0.0 mm
07:27 PM 44.6°F7.0°C 35.7°F2.1°C 71% Calm Calm -- 30.36 in1028.1 mb 0.00 in0.0 mm 0.00 in0.0 mm 0.00 in0.0 mm
07:32 PM 44.6°F7.0°C 35.3°F1.8°C 70% Calm Calm -- 30.36 in1028.1 mb 0.00 in0.0 mm 0.00 in0.0 mm 0.00 in0.0 mm
07:38 PM 44.6°F7.0°C 35.3°F1.8°C 70% Calm Calm -- 30.36 in1028.1 mb 0.00 in0.0 mm 0.00 in0.0 mm 0.00 in0.0 mm
07:42 PM 44.7°F7.1°C 35.5°F1.9°C 70% Calm Calm -- 30.36 in1028.1 mb 0.00 in0.0 mm 0.00 in0.0 mm 0.00 in0.0 mm
07:47 PM 44.6°F7.0°C 35.3°F1.8°C 70% Calm Calm -- 30.36 in1028.1 mb 0.00 in0.0 mm 0.00 in0.0 mm 0.00 in0.0 mm
07:52 PM 44.5°F6.9°C 35.1°F1.7°C 70% Calm Calm -- 30.36 in1028.1 mb 0.00 in0.0 mm 0.00 in0.0 mm 0.00 in0.0 mm
07:58 PM 44.6°F7.0°C 35.7°F2.1°C 71% 2.0 mph S3.2 kmh S -- 30.36 in1028.1 mb 0.00 in0.0 mm 0.00 in0.0 mm 0.00 in0.0 mm
08:02 PM 44.5°F6.9°C 35.1°F1.7°C 70% Calm Calm -- 30.36 in1028.1 mb 0.00 in0.0 mm 0.00 in0.0 mm 0.00 in0.0 mm
08:07 PM 44.5°F6.9°C 35.1°F1.7°C 70% 2.0 mph S3.2 kmh S -- 30.36 in1028.1 mb 0.00 in0.0 mm 0.00 in0.0 mm 0.00 in0.0 mm
08:12 PM 44.6°F7.0°C 35.3°F1.8°C 70% Calm Calm -- 30.36 in1028.1 mb 0.00 in0.0 mm 0.00 in0.0 mm 0.00 in0.0 mm
08:18 PM 44.7°F7.1°C 35.5°F1.9°C 70% 2.0 mph S3.2 kmh S -- 30.36 in1028.1 mb 0.00 in0.0 mm 0.00 in0.0 mm 0.00 in0.0 mm
08:22 PM 44.7°F7.1°C 35.5°F1.9°C 70% 1.0 mph SSE1.6 kmh SSE -- 30.36 in1028.1 mb 0.00 in0.0 mm 0.00 in0.0 mm 0.00 in0.0 mm
08:27 PM 44.7°F7.1°C 35.5°F1.9°C 70% 1.0 mph SSE1.6 kmh SSE -- 30.36 in1028.1 mb 0.00 in0.0 mm 0.00 in0.0 mm 0.00 in0.0 mm
08:32 PM 44.7°F7.1°C 35.8°F2.1°C 71% 2.0 mph SSE3.2 kmh SSE -- 30.36 in1028.1 mb 0.00 in0.0 mm 0.00 in0.0 mm 0.00 in0.0 mm
08:37 PM 44.7°F7.1°C 35.8°F2.1°C 71% 2.0 mph S3.2 kmh S -- 30.36 in1028.1 mb 0.00 in0.0 mm 0.00 in0.0 mm 0.00 in0.0 mm
08:42 PM 44.7°F7.1°C 35.8°F2.1°C 71% 2.0 mph S3.2 kmh S -- 30.36 in1028.1 mb 0.00 in0.0 mm 0.00 in0.0 mm 0.00 in0.0 mm
08:47 PM 44.6°F7.0°C 35.7°F2.1°C 71% Calm Calm -- 30.35 in1027.8 mb 0.00 in0.0 mm 0.00 in0.0 mm 0.00 in0.0 mm
08:52 PM 44.7°F7.1°C 36.2°F2.3°C 72% 2.0 mph S3.2 kmh S -- 30.36 in1028.1 mb 0.00 in0.0 mm 0.00 in0.0 mm 0.00 in0.0 mm
08:58 PM 44.7°F7.1°C 36.2°F2.3°C 72% 1.0 mph S1.6 kmh S -- 30.36 in1028.1 mb 0.00 in0.0 mm 0.00 in0.0 mm 0.00 in0.0 mm
09:02 PM 44.6°F7.0°C 36.4°F2.4°C 73% 1.0 mph S1.6 kmh S -- 30.36 in1028.1 mb 0.00 in0.0 mm 0.00 in0.0 mm 0.00 in0.0 mm
09:07 PM 44.6°F7.0°C 36.0°F2.2°C 72% Calm Calm -- 30.36 in1028.1 mb 0.00 in0.0 mm 0.00 in0.0 mm 0.00 in0.0 mm
09:12 PM 44.5°F6.9°C 36.2°F2.3°C 73% Calm Calm -- 30.36 in1028.1 mb 0.00 in0.0 mm 0.00 in0.0 mm 0.00 in0.0 mm
09:18 PM 44.3°F6.8°C 36.4°F2.4°C 74% Calm Calm -- 30.35 in1027.8 mb 0.00 in0.0 mm 0.00 in0.0 mm 0.00 in0.0 mm
09:22 PM 44.3°F6.8°C 36.4°F2.4°C 74% Calm Calm -- 30.35 in1027.8 mb 0.00 in0.0 mm 0.00 in0.0 mm 0.00 in0.0 mm
09:27 PM 44.1°F6.7°C 36.6°F2.6°C 75% Calm Calm -- 30.35 in1027.8 mb 0.00 in0.0 mm 0.00 in0.0 mm 0.00 in0.0 mm
09:32 PM 44.0°F6.7°C 36.6°F2.6°C 75% Calm Calm -- 30.35 in1027.8 mb 0.00 in0.0 mm 0.00 in0.0 mm 0.00 in0.0 mm
09:38 PM 43.9°F6.6°C 36.7°F2.6°C 76% Calm Calm -- 30.35 in1027.8 mb 0.00 in0.0 mm 0.00 in0.0 mm 0.00 in0.0 mm
09:42 PM 43.9°F6.6°C 37.1°F2.8°C 77% Calm Calm -- 30.35 in1027.8 mb 0.00 in0.0 mm 0.00 in0.0 mm 0.00 in0.0 mm
09:47 PM 43.8°F6.6°C 37.1°F2.8°C 77% 1.0 mph E1.6 kmh E -- 30.35 in1027.8 mb 0.00 in0.0 mm 0.00 in0.0 mm 0.00 in0.0 mm
09:52 PM 43.6°F6.4°C 37.0°F2.8°C 78% Calm Calm -- 30.34 in1027.4 mb 0.00 in0.0 mm 0.00 in0.0 mm 0.00 in0.0 mm
09:58 PM 43.6°F6.4°C 37.0°F2.8°C 78% Calm Calm -- 30.34 in1027.4 mb 0.00 in0.0 mm 0.00 in0.0 mm 0.00 in0.0 mm
10:02 PM 43.6°F6.4°C 37.4°F3.0°C 79% Calm Calm -- 30.34 in1027.4 mb 0.00 in0.0 mm 0.00 in0.0 mm 0.00 in0.0 mm
10:07 PM 43.6°F6.4°C 37.4°F3.0°C 79% Calm Calm -- 30.34 in1027.4 mb 0.00 in0.0 mm 0.00 in0.0 mm 0.00 in0.0 mm
10:12 PM 43.4°F6.3°C 37.2°F2.9°C 79% Calm Calm -- 30.34 in1027.4 mb 0.00 in0.0 mm 0.00 in0.0 mm 0.00 in0.0 mm
10:17 PM 43.4°F6.3°C 37.5°F3.1°C 80% Calm Calm -- 30.34 in1027.4 mb 0.00 in0.0 mm 0.00 in0.0 mm 0.00 in0.0 mm
10:22 PM 43.3°F6.3°C 37.5°F3.1°C 80% Calm Calm -- 30.34 in1027.4 mb 0.00 in0.0 mm 0.00 in0.0 mm 0.00 in0.0 mm
10:27 PM 43.3°F6.3°C 37.5°F3.1°C 80% Calm Calm -- 30.33 in1027.1 mb 0.00 in0.0 mm 0.00 in0.0 mm 0.00 in0.0 mm
10:32 PM 43.2°F6.2°C 37.7°F3.2°C 81% Calm Calm -- 30.34 in1027.4 mb 0.00 in0.0 mm 0.00 in0.0 mm 0.00 in0.0 mm
10:37 PM 43.1°F6.2°C 38.3°F3.5°C 83% Calm Calm -- 30.33 in1027.1 mb 0.00 in0.0 mm 0.00 in0.0 mm 0.00 in0.0 mm
10:42 PM 43.1°F6.2°C 38.0°F3.3°C 82% Calm Calm -- 30.33 in1027.1 mb 0.00 in0.0 mm 0.00 in0.0 mm 0.00 in0.0 mm
10:47 PM 42.9°F6.1°C 38.1°F3.4°C 83% Calm Calm -- 30.33 in1027.1 mb 0.00 in0.0 mm 0.00 in0.0 mm 0.00 in0.0 mm
10:53 PM 42.9°F6.1°C 38.1°F3.4°C 83% Calm Calm -- 30.33 in1027.1 mb 0.00 in0.0 mm 0.00 in0.0 mm 0.00 in0.0 mm
10:57 PM 42.9°F6.1°C 38.4°F3.6°C 84% Calm Calm -- 30.33 in1027.1 mb 0.00 in0.0 mm 0.00 in0.0 mm 0.00 in0.0 mm
11:02 PM 42.9°F6.1°C 38.7°F3.7°C 85% Calm Calm -- 30.33 in1027.1 mb 0.00 in0.0 mm 0.00 in0.0 mm 0.00 in0.0 mm
11:07 PM 42.7°F5.9°C 38.4°F3.6°C 85% Calm Calm -- 30.32 in1026.8 mb 0.00 in0.0 mm 0.00 in0.0 mm 0.00 in0.0 mm
11:13 PM 42.7°F5.9°C 38.7°F3.7°C 86% Calm Calm -- 30.33 in1027.1 mb 0.00 in0.0 mm 0.00 in0.0 mm 0.00 in0.0 mm
11:17 PM 42.6°F5.9°C 39.0°F3.9°C 87% 1.0 mph SE1.6 kmh SE -- 30.33 in1027.1 mb 0.00 in0.0 mm 0.00 in0.0 mm 0.00 in0.0 mm
11:22 PM 42.5°F5.8°C 38.8°F3.8°C 87% 2.0 mph NE3.2 kmh NE -- 30.33 in1027.1 mb 0.00 in0.0 mm 0.00 in0.0 mm 0.00 in0.0 mm
11:27 PM 42.5°F5.8°C 39.1°F3.9°C 88% 3.0 mph NNE4.8 kmh NNE -- 30.33 in1027.1 mb 0.00 in0.0 mm 0.00 in0.0 mm 0.00 in0.0 mm
11:33 PM 42.6°F5.9°C 39.6°F4.2°C 89% 2.0 mph ESE3.2 kmh ESE -- 30.33 in1027.1 mb 0.00 in0.0 mm 0.00 in0.0 mm 0.00 in0.0 mm
11:37 PM 42.5°F5.8°C 39.7°F4.3°C 90% 2.0 mph NE3.2 kmh NE -- 30.33 in1027.1 mb 0.00 in0.0 mm 0.00 in0.0 mm 0.00 in0.0 mm
11:42 PM 42.3°F5.7°C 39.5°F4.2°C 90% 2.0 mph ENE3.2 kmh ENE -- 30.33 in1027.1 mb 0.00 in0.0 mm 0.00 in0.0 mm 0.00 in0.0 mm
11:47 PM 42.4°F5.8°C 40.0°F4.4°C 91% 2.0 mph N3.2 kmh N -- 30.33 in1027.1 mb 0.00 in0.0 mm 0.00 in0.0 mm 0.00 in0.0 mm
11:53 PM 42.2°F5.7°C 39.5°F4.2°C 90% 2.0 mph NNE3.2 kmh NNE -- 30.33 in1027.1 mb 0.00 in0.0 mm 0.00 in0.0 mm 0.00 in0.0 mm
11:57 PM 42.3°F5.7°C 39.5°F4.2°C 90% 2.0 mph NNE3.2 kmh NNE -- 30.33 in1027.1 mb 0.01 in0.3 mm 0.15 in3.8 mm 0.01 in0.3 mm